AIB280 KLAX-KSFO
Flight info
| Callsign | AIB280 |
|---|---|
| Flight time | 0h 50m |
| Altitude | 38000 |
| Route | SUMMR2 STOKD SERFR SERFR4 |
| Aircraft | A359/H-SDE2E3GHIJ3J4J5LM1ORWXY/LB1D1 |
Departure
| Time | 2026-05-06 04:25 |
|---|---|
| Airport | Los Angeles International Airport (KLAX) |
Arrival
| Time | 2026-05-06 05:16 |
|---|---|
| Airport | San Francisco International Airport (KSFO) |
| Time | Latitude | Longitude | Altitude | Speed | Heading |
|---|---|---|---|---|---|
| 2026-05-06 04:07 | 33.94021 | -118.41083 | 132 ft | 0 kts | 83° |
| 2026-05-06 04:16 | 33.94020 | -118.41088 | 132 ft | 3 kts | 82° |
| 2026-05-06 04:17 | 33.94018 | -118.41110 | 132 ft | 3 kts | 82° |
| 2026-05-06 04:17 | 33.94015 | -118.41132 | 132 ft | 3 kts | 88° |
| 2026-05-06 04:17 | 33.94015 | -118.41153 | 132 ft | 3 kts | 85° |
| 2026-05-06 04:17 | 33.94009 | -118.41176 | 130 ft | 3 kts | 43° |
| 2026-05-06 04:18 | 33.93992 | -118.41188 | 127 ft | 3 kts | 1° |
| 2026-05-06 04:18 | 33.93991 | -118.41189 | 128 ft | 0 kts | 358° |
| 2026-05-06 04:20 | 33.94020 | -118.41189 | 132 ft | 12 kts | 358° |
| 2026-05-06 04:20 | 33.94153 | -118.41206 | 130 ft | 26 kts | 353° |
| 2026-05-06 04:20 | 33.94334 | -118.41230 | 124 ft | 25 kts | 354° |
| 2026-05-06 04:21 | 33.94511 | -118.41258 | 126 ft | 27 kts | 352° |
| 2026-05-06 04:21 | 33.94693 | -118.41286 | 126 ft | 17 kts | 353° |
| 2026-05-06 04:21 | 33.94772 | -118.41283 | 125 ft | 11 kts | 28° |
| 2026-05-06 04:21 | 33.94803 | -118.41197 | 124 ft | 13 kts | 82° |
| 2026-05-06 04:22 | 33.94821 | -118.41025 | 131 ft | 28 kts | 83° |
| 2026-05-06 04:22 | 33.94845 | -118.40789 | 132 ft | 29 kts | 83° |
| 2026-05-06 04:22 | 33.94870 | -118.40548 | 125 ft | 29 kts | 83° |
| 2026-05-06 04:23 | 33.94919 | -118.40078 | 123 ft | 28 kts | 83° |
| 2026-05-06 04:23 | 33.94935 | -118.39957 | 132 ft | 0 kts | 72° |
| 2026-05-06 04:23 | 33.94936 | -118.39956 | 132 ft | 1 kts | 66° |
| 2026-05-06 04:23 | 33.94992 | -118.39906 | 130 ft | 16 kts | 11° |
| 2026-05-06 04:24 | 33.95031 | -118.39915 | 127 ft | 1 kts | 327° |
| 2026-05-06 04:24 | 33.95044 | -118.39985 | 122 ft | 11 kts | 255° |
| 2026-05-06 04:24 | 33.95031 | -118.40080 | 128 ft | 13 kts | 263° |
| 2026-05-06 04:24 | 33.95016 | -118.40215 | 125 ft | 31 kts | 262° |
| 2026-05-06 04:25 | 33.94955 | -118.40803 | 121 ft | 109 kts | 263° |
| 2026-05-06 04:25 | 33.94838 | -118.41962 | 193 ft | 166 kts | 262° |
| 2026-05-06 04:25 | 33.94704 | -118.43334 | 1109 ft | 160 kts | 263° |
| 2026-05-06 04:25 | 33.94587 | -118.44658 | 2056 ft | 161 kts | 264° |
| 2026-05-06 04:26 | 33.94447 | -118.46041 | 2695 ft | 175 kts | 263° |
| 2026-05-06 04:26 | 33.94300 | -118.47616 | 3128 ft | 203 kts | 266° |
| 2026-05-06 04:26 | 33.94238 | -118.49430 | 3571 ft | 230 kts | 269° |
| 2026-05-06 04:26 | 33.94194 | -118.51424 | 4213 ft | 245 kts | 268° |
| 2026-05-06 04:27 | 33.94066 | -118.53539 | 4761 ft | 259 kts | 264° |
| 2026-05-06 04:27 | 33.93882 | -118.55697 | 4962 ft | 254 kts | 264° |
| 2026-05-06 04:27 | 33.93708 | -118.57734 | 4995 ft | 243 kts | 265° |
| 2026-05-06 04:27 | 33.93542 | -118.59752 | 4995 ft | 242 kts | 265° |
| 2026-05-06 04:28 | 33.93378 | -118.61778 | 4995 ft | 243 kts | 265° |
| 2026-05-06 04:28 | 33.93217 | -118.63794 | 5090 ft | 241 kts | 265° |
| 2026-05-06 04:28 | 33.93065 | -118.65781 | 5475 ft | 246 kts | 265° |
| 2026-05-06 04:28 | 33.92908 | -118.67881 | 6196 ft | 248 kts | 266° |
| 2026-05-06 04:29 | 33.92743 | -118.69969 | 7097 ft | 252 kts | 266° |
| 2026-05-06 04:29 | 33.92578 | -118.72065 | 7886 ft | 263 kts | 266° |
| 2026-05-06 04:29 | 33.92400 | -118.74357 | 8678 ft | 275 kts | 267° |
| 2026-05-06 04:29 | 33.92217 | -118.76683 | 9608 ft | 283 kts | 267° |
| 2026-05-06 04:30 | 33.92029 | -118.79087 | 10390 ft | 295 kts | 267° |
| 2026-05-06 04:30 | 33.91831 | -118.81646 | 10857 ft | 319 kts | 267° |
| 2026-05-06 04:30 | 33.91737 | -118.84385 | 11506 ft | 332 kts | 273° |
| 2026-05-06 04:30 | 33.91806 | -118.87184 | 12370 ft | 339 kts | 274° |
| 2026-05-06 04:31 | 33.91897 | -118.90060 | 13282 ft | 345 kts | 274° |
| 2026-05-06 04:31 | 33.91986 | -118.92960 | 14140 ft | 351 kts | 274° |
| 2026-05-06 04:31 | 33.92074 | -118.95920 | 14899 ft | 357 kts | 274° |
| 2026-05-06 04:31 | 33.92170 | -118.98919 | 15637 ft | 364 kts | 275° |
| 2026-05-06 04:32 | 33.92594 | -119.01947 | 16394 ft | 365 kts | 291° |
| 2026-05-06 04:32 | 33.93708 | -119.04645 | 17201 ft | 365 kts | 304° |
| 2026-05-06 04:32 | 33.95070 | -119.07255 | 17990 ft | 370 kts | 306° |
| 2026-05-06 04:32 | 33.96462 | -119.09894 | 18746 ft | 376 kts | 306° |
| 2026-05-06 04:33 | 33.97833 | -119.12518 | 19464 ft | 380 kts | 306° |
| 2026-05-06 04:33 | 33.99280 | -119.15300 | 20282 ft | 384 kts | 306° |
| 2026-05-06 04:33 | 34.00843 | -119.17912 | 20999 ft | 385 kts | 314° |
| 2026-05-06 04:33 | 34.02778 | -119.20143 | 21696 ft | 385 kts | 326° |
| 2026-05-06 04:34 | 34.04942 | -119.22067 | 22402 ft | 388 kts | 329° |
| 2026-05-06 04:34 | 34.07163 | -119.23956 | 23137 ft | 393 kts | 330° |
| 2026-05-06 04:34 | 34.09403 | -119.25866 | 23856 ft | 395 kts | 330° |
| 2026-05-06 04:34 | 34.11651 | -119.27792 | 24542 ft | 398 kts | 330° |
| 2026-05-06 04:35 | 34.13921 | -119.29739 | 25121 ft | 402 kts | 331° |
| 2026-05-06 04:35 | 34.16186 | -119.31685 | 25692 ft | 407 kts | 331° |
| 2026-05-06 04:35 | 34.18497 | -119.33674 | 26276 ft | 411 kts | 332° |
| 2026-05-06 04:35 | 34.20835 | -119.35689 | 26872 ft | 414 kts | 332° |
| 2026-05-06 04:36 | 34.23189 | -119.37721 | 27468 ft | 418 kts | 333° |
| 2026-05-06 04:36 | 34.25568 | -119.39775 | 28047 ft | 422 kts | 333° |
| 2026-05-06 04:36 | 34.27965 | -119.41845 | 28600 ft | 426 kts | 333° |
| 2026-05-06 04:36 | 34.30391 | -119.43942 | 29165 ft | 430 kts | 333° |
| 2026-05-06 04:37 | 34.32837 | -119.46058 | 29679 ft | 433 kts | 333° |
| 2026-05-06 04:37 | 34.35227 | -119.48128 | 30158 ft | 437 kts | 334° |
| 2026-05-06 04:37 | 34.37719 | -119.50288 | 30643 ft | 440 kts | 333° |
| 2026-05-06 04:37 | 34.40234 | -119.52508 | 31184 ft | 443 kts | 331° |
| 2026-05-06 04:38 | 34.42562 | -119.55005 | 31649 ft | 452 kts | 324° |
| 2026-05-06 04:38 | 34.44786 | -119.57716 | 32103 ft | 455 kts | 322° |
| 2026-05-06 04:38 | 34.46257 | -119.59535 | 32399 ft | 456 kts | 322° |
| 2026-05-06 04:38 | 34.48489 | -119.62289 | 32820 ft | 459 kts | 322° |
| 2026-05-06 04:39 | 34.50732 | -119.65055 | 33261 ft | 461 kts | 322° |
| 2026-05-06 04:39 | 34.52996 | -119.67846 | 33707 ft | 463 kts | 322° |
| 2026-05-06 04:39 | 34.55263 | -119.70639 | 34107 ft | 465 kts | 321° |
| 2026-05-06 04:39 | 34.57539 | -119.73451 | 34418 ft | 468 kts | 321° |
| 2026-05-06 04:40 | 34.59823 | -119.76271 | 34768 ft | 468 kts | 321° |
| 2026-05-06 04:40 | 34.62109 | -119.79095 | 35204 ft | 468 kts | 320° |
| 2026-05-06 04:40 | 34.64391 | -119.81919 | 35631 ft | 467 kts | 320° |
| 2026-05-06 04:40 | 34.66663 | -119.84733 | 36034 ft | 465 kts | 320° |
| 2026-05-06 04:41 | 34.68907 | -119.87514 | 36453 ft | 464 kts | 319° |
| 2026-05-06 04:41 | 34.71163 | -119.90311 | 36894 ft | 462 kts | 319° |
| 2026-05-06 04:41 | 34.73410 | -119.93097 | 37232 ft | 463 kts | 319° |
| 2026-05-06 04:41 | 34.75663 | -119.95896 | 37663 ft | 461 kts | 319° |
| 2026-05-06 04:42 | 34.77621 | -119.98330 | 37999 ft | 461 kts | 319° |
| 2026-05-06 04:42 | 34.82028 | -120.03820 | 38091 ft | 444 kts | 319° |
| 2026-05-06 04:43 | 34.86327 | -120.09176 | 38087 ft | 440 kts | 319° |
| 2026-05-06 04:43 | 34.90602 | -120.14507 | 38087 ft | 439 kts | 319° |
| 2026-05-06 04:44 | 34.94859 | -120.19829 | 38099 ft | 438 kts | 319° |
| 2026-05-06 04:44 | 34.99177 | -120.25229 | 38104 ft | 451 kts | 319° |
| 2026-05-06 04:45 | 35.03600 | -120.30772 | 38106 ft | 466 kts | 319° |
| 2026-05-06 04:45 | 35.08185 | -120.36534 | 38099 ft | 479 kts | 319° |
| 2026-05-06 04:46 | 35.13035 | -120.42191 | 38100 ft | 483 kts | 322° |
| 2026-05-06 04:46 | 35.18037 | -120.47696 | 38106 ft | 484 kts | 322° |
| 2026-05-06 04:47 | 35.23008 | -120.53240 | 38103 ft | 483 kts | 322° |
| 2026-05-06 04:47 | 35.27949 | -120.58782 | 38103 ft | 485 kts | 322° |
| 2026-05-06 04:48 | 35.32924 | -120.64377 | 38100 ft | 486 kts | 322° |
| 2026-05-06 04:48 | 35.37907 | -120.69999 | 38098 ft | 486 kts | 322° |
| 2026-05-06 04:49 | 35.42888 | -120.75629 | 38095 ft | 487 kts | 322° |
| 2026-05-06 04:49 | 35.47845 | -120.81222 | 38100 ft | 486 kts | 323° |
| 2026-05-06 04:50 | 35.53149 | -120.86289 | 38102 ft | 483 kts | 328° |
| 2026-05-06 04:50 | 35.58522 | -120.91254 | 38093 ft | 483 kts | 328° |
| 2026-05-06 04:51 | 35.63868 | -120.96215 | 38083 ft | 484 kts | 328° |
| 2026-05-06 04:51 | 35.69228 | -121.01204 | 38090 ft | 483 kts | 328° |
| 2026-05-06 04:52 | 35.74590 | -121.06204 | 38086 ft | 483 kts | 328° |
| 2026-05-06 04:52 | 35.79950 | -121.11210 | 38093 ft | 483 kts | 328° |
| 2026-05-06 04:53 | 35.85290 | -121.16210 | 37608 ft | 477 kts | 328° |
| 2026-05-06 04:53 | 35.87909 | -121.18664 | 36760 ft | 480 kts | 329° |
| 2026-05-06 04:53 | 35.90607 | -121.21192 | 36014 ft | 484 kts | 329° |
| 2026-05-06 04:53 | 35.93299 | -121.23717 | 35367 ft | 486 kts | 329° |
| 2026-05-06 04:54 | 35.95987 | -121.26242 | 34827 ft | 487 kts | 329° |
| 2026-05-06 04:54 | 35.98694 | -121.28789 | 34266 ft | 488 kts | 329° |
| 2026-05-06 04:54 | 36.01360 | -121.31297 | 33660 ft | 490 kts | 329° |
| 2026-05-06 04:54 | 36.04120 | -121.33896 | 33068 ft | 492 kts | 329° |
| 2026-05-06 04:55 | 36.06829 | -121.36395 | 32511 ft | 492 kts | 332° |
| 2026-05-06 04:55 | 36.09702 | -121.38714 | 31921 ft | 492 kts | 334° |
| 2026-05-06 04:55 | 36.12603 | -121.40968 | 31356 ft | 494 kts | 334° |
| 2026-05-06 04:55 | 36.15523 | -121.43236 | 30824 ft | 496 kts | 333° |
| 2026-05-06 04:56 | 36.18458 | -121.45524 | 30234 ft | 497 kts | 333° |
| 2026-05-06 04:56 | 36.21294 | -121.47737 | 29585 ft | 496 kts | 333° |
| 2026-05-06 04:56 | 36.24279 | -121.50077 | 28965 ft | 488 kts | 333° |
| 2026-05-06 04:56 | 36.27064 | -121.52258 | 28410 ft | 488 kts | 333° |
| 2026-05-06 04:57 | 36.29970 | -121.54532 | 27815 ft | 482 kts | 333° |
| 2026-05-06 04:57 | 36.32795 | -121.56748 | 27246 ft | 480 kts | 333° |
| 2026-05-06 04:57 | 36.35620 | -121.58964 | 26665 ft | 476 kts | 333° |
| 2026-05-06 04:57 | 36.38411 | -121.61159 | 26083 ft | 473 kts | 333° |
| 2026-05-06 04:58 | 36.41189 | -121.63343 | 25503 ft | 469 kts | 333° |
| 2026-05-06 04:58 | 36.43936 | -121.65503 | 24916 ft | 467 kts | 332° |
| 2026-05-06 04:58 | 36.46643 | -121.67634 | 24427 ft | 462 kts | 332° |
| 2026-05-06 04:58 | 36.49359 | -121.69774 | 23823 ft | 462 kts | 332° |
| 2026-05-06 04:59 | 36.52060 | -121.71910 | 23147 ft | 458 kts | 332° |
| 2026-05-06 04:59 | 36.54733 | -121.74023 | 22519 ft | 451 kts | 332° |
| 2026-05-06 04:59 | 36.57376 | -121.76112 | 21923 ft | 448 kts | 332° |
| 2026-05-06 04:59 | 36.59987 | -121.78178 | 21329 ft | 443 kts | 331° |
| 2026-05-06 05:00 | 36.62570 | -121.80223 | 20725 ft | 437 kts | 331° |
| 2026-05-06 05:00 | 36.65134 | -121.82255 | 20160 ft | 435 kts | 331° |
| 2026-05-06 05:00 | 36.67666 | -121.84264 | 19577 ft | 429 kts | 331° |
| 2026-05-06 05:00 | 36.70186 | -121.86264 | 18986 ft | 427 kts | 331° |
| 2026-05-06 05:01 | 36.72673 | -121.88232 | 18416 ft | 421 kts | 331° |
| 2026-05-06 05:01 | 36.75308 | -121.89745 | 17784 ft | 413 kts | 346° |
| 2026-05-06 05:01 | 36.78029 | -121.90562 | 17211 ft | 406 kts | 351° |
| 2026-05-06 05:01 | 36.80854 | -121.91293 | 16643 ft | 407 kts | 350° |
| 2026-05-06 05:02 | 36.83507 | -121.92025 | 16100 ft | 401 kts | 349° |
| 2026-05-06 05:02 | 36.86324 | -121.92814 | 15531 ft | 400 kts | 349° |
| 2026-05-06 05:02 | 36.88999 | -121.93564 | 15021 ft | 396 kts | 349° |
| 2026-05-06 05:02 | 36.91644 | -121.94309 | 14467 ft | 389 kts | 349° |
| 2026-05-06 05:03 | 36.94265 | -121.95044 | 14122 ft | 375 kts | 350° |
| 2026-05-06 05:03 | 36.96758 | -121.95791 | 13785 ft | 363 kts | 347° |
| 2026-05-06 05:03 | 36.99130 | -121.96726 | 13469 ft | 351 kts | 345° |
| 2026-05-06 05:03 | 37.01406 | -121.97661 | 13099 ft | 340 kts | 345° |
| 2026-05-06 05:04 | 37.03630 | -121.98561 | 12457 ft | 329 kts | 345° |
| 2026-05-06 05:04 | 37.05804 | -121.99427 | 11396 ft | 325 kts | 345° |
| 2026-05-06 05:04 | 37.07933 | -122.00267 | 10719 ft | 312 kts | 345° |
| 2026-05-06 05:04 | 37.09947 | -122.01061 | 10367 ft | 297 kts | 346° |
| 2026-05-06 05:05 | 37.11884 | -122.01822 | 10214 ft | 285 kts | 346° |
| 2026-05-06 05:05 | 37.13729 | -122.02547 | 10103 ft | 272 kts | 346° |
| 2026-05-06 05:05 | 37.15510 | -122.03244 | 9931 ft | 265 kts | 346° |
| 2026-05-06 05:05 | 37.17290 | -122.03939 | 9636 ft | 274 kts | 346° |
| 2026-05-06 05:06 | 37.19079 | -122.04635 | 9405 ft | 278 kts | 346° |
| 2026-05-06 05:06 | 37.20963 | -122.05371 | 9167 ft | 276 kts | 346° |
| 2026-05-06 05:06 | 37.22773 | -122.06082 | 8890 ft | 269 kts | 345° |
| 2026-05-06 05:06 | 37.24554 | -122.06781 | 8510 ft | 267 kts | 345° |
| 2026-05-06 05:07 | 37.26318 | -122.07471 | 8180 ft | 263 kts | 345° |
| 2026-05-06 05:07 | 37.28062 | -122.08156 | 8008 ft | 261 kts | 344° |
| 2026-05-06 05:07 | 37.29799 | -122.08845 | 7604 ft | 261 kts | 344° |
| 2026-05-06 05:07 | 37.31509 | -122.09517 | 7207 ft | 261 kts | 344° |
| 2026-05-06 05:08 | 37.33237 | -122.10196 | 6861 ft | 259 kts | 344° |
| 2026-05-06 05:08 | 37.34952 | -122.10872 | 6521 ft | 257 kts | 344° |
| 2026-05-06 05:08 | 37.36658 | -122.11545 | 6165 ft | 257 kts | 343° |
| 2026-05-06 05:08 | 37.38365 | -122.12215 | 5777 ft | 257 kts | 344° |
| 2026-05-06 05:09 | 37.40094 | -122.12817 | 5299 ft | 258 kts | 346° |
| 2026-05-06 05:09 | 37.41831 | -122.13392 | 4853 ft | 259 kts | 345° |
| 2026-05-06 05:09 | 37.43581 | -122.13976 | 4387 ft | 259 kts | 345° |
| 2026-05-06 05:09 | 37.45311 | -122.14562 | 4048 ft | 254 kts | 343° |
| 2026-05-06 05:10 | 37.47024 | -122.15144 | 3612 ft | 255 kts | 343° |
| 2026-05-06 05:10 | 37.48718 | -122.15726 | 3228 ft | 254 kts | 343° |
| 2026-05-06 05:10 | 37.50386 | -122.16297 | 3100 ft | 241 kts | 343° |
| 2026-05-06 05:10 | 37.51942 | -122.16870 | 3094 ft | 222 kts | 338° |
| 2026-05-06 05:11 | 37.53198 | -122.17750 | 3091 ft | 198 kts | 319° |
| 2026-05-06 05:11 | 37.54094 | -122.18979 | 2955 ft | 183 kts | 299° |
| 2026-05-06 05:11 | 37.54664 | -122.20377 | 2715 ft | 178 kts | 295° |
| 2026-05-06 05:11 | 37.55252 | -122.21739 | 2465 ft | 175 kts | 297° |
| 2026-05-06 05:12 | 37.55811 | -122.23052 | 2220 ft | 164 kts | 295° |
| 2026-05-06 05:12 | 37.56329 | -122.24294 | 2047 ft | 156 kts | 296° |
| 2026-05-06 05:12 | 37.56819 | -122.25457 | 1835 ft | 144 kts | 296° |
| 2026-05-06 05:12 | 37.57270 | -122.26530 | 1640 ft | 134 kts | 296° |
| 2026-05-06 05:13 | 37.57685 | -122.27518 | 1464 ft | 125 kts | 296° |
| 2026-05-06 05:13 | 37.58096 | -122.28498 | 1316 ft | 125 kts | 295° |
| 2026-05-06 05:13 | 37.58502 | -122.29467 | 1138 ft | 124 kts | 296° |
| 2026-05-06 05:13 | 37.58906 | -122.30436 | 977 ft | 126 kts | 296° |
| 2026-05-06 05:14 | 37.59296 | -122.31409 | 814 ft | 127 kts | 295° |
| 2026-05-06 05:14 | 37.59693 | -122.32400 | 651 ft | 126 kts | 295° |
| 2026-05-06 05:14 | 37.60103 | -122.33383 | 473 ft | 127 kts | 299° |
| 2026-05-06 05:14 | 37.60545 | -122.34352 | 304 ft | 127 kts | 298° |
| 2026-05-06 05:15 | 37.60944 | -122.35320 | 143 ft | 124 kts | 295° |
| 2026-05-06 05:15 | 37.61348 | -122.36281 | 26 ft | 122 kts | 297° |
| 2026-05-06 05:15 | 37.61689 | -122.37078 | 27 ft | 85 kts | 297° |
| 2026-05-06 05:15 | 37.61924 | -122.37637 | 29 ft | 62 kts | 298° |
| 2026-05-06 05:16 | 37.61991 | -122.37823 | 30 ft | 13 kts | 282° |
| 2026-05-06 05:16 | 37.61967 | -122.37923 | 29 ft | 0 kts | 233° |
| 2026-05-06 05:16 | 37.61963 | -122.37930 | 29 ft | 2 kts | 232° |
| 2026-05-06 05:16 | 37.61933 | -122.37941 | 28 ft | 7 kts | 176° |
| 2026-05-06 05:17 | 37.61868 | -122.37900 | 26 ft | 16 kts | 152° |
| 2026-05-06 05:17 | 37.61795 | -122.37757 | 29 ft | 21 kts | 111° |
| 2026-05-06 05:17 | 37.61740 | -122.37580 | 26 ft | 20 kts | 112° |
| 2026-05-06 05:17 | 37.61731 | -122.37550 | 26 ft | 3 kts | 112° |
| 2026-05-06 05:18 | 37.61726 | -122.37535 | 32 ft | 0 kts | 114° |
| 2026-05-06 05:18 | 37.61724 | -122.37531 | 31 ft | 1 kts | 114° |
| 2026-05-06 05:18 | 37.61712 | -122.37497 | 29 ft | 11 kts | 115° |
| 2026-05-06 05:18 | 37.61641 | -122.37331 | 29 ft | 25 kts | 127° |
| 2026-05-06 05:19 | 37.61541 | -122.37310 | 30 ft | 13 kts | 203° |
| 2026-05-06 05:19 | 37.61428 | -122.37383 | 28 ft | 25 kts | 206° |
| 2026-05-06 05:19 | 37.61281 | -122.37484 | 27 ft | 7 kts | 213° |
| 2026-05-06 05:19 | 37.61239 | -122.37543 | 29 ft | 11 kts | 246° |
| 2026-05-06 05:20 | 37.61237 | -122.37558 | 28 ft | 0 kts | 263° |
| 2026-05-06 05:20 | 37.61235 | -122.37572 | 28 ft | 3 kts | 263° |
| 2026-05-06 05:20 | 37.61233 | -122.37644 | 28 ft | 16 kts | 276° |
| 2026-05-06 05:20 | 37.61300 | -122.37834 | 24 ft | 28 kts | 297° |
| 2026-05-06 05:21 | 37.61385 | -122.38039 | 26 ft | 25 kts | 298° |
| 2026-05-06 05:21 | 37.61399 | -122.38112 | 26 ft | 6 kts | 259° |
| 2026-05-06 05:21 | 37.61334 | -122.38183 | 26 ft | 18 kts | 210° |
| 2026-05-06 05:21 | 37.61239 | -122.38247 | 26 ft | 15 kts | 207° |
| 2026-05-06 05:22 | 37.61142 | -122.38310 | 26 ft | 16 kts | 207° |
| 2026-05-06 05:22 | 37.61036 | -122.38384 | 29 ft | 18 kts | 212° |
| 2026-05-06 05:22 | 37.60935 | -122.38473 | 31 ft | 18 kts | 215° |
| 2026-05-06 05:22 | 37.60887 | -122.38559 | 26 ft | 2 kts | 277° |
| 2026-05-06 05:23 | 37.60904 | -122.38599 | 29 ft | 12 kts | 295° |
| 2026-05-06 05:23 | 37.60955 | -122.38725 | 27 ft | 17 kts | 297° |
| 2026-05-06 05:23 | 37.60984 | -122.38795 | 24 ft | 8 kts | 300° |
| 2026-05-06 05:24 | 37.61017 | -122.38854 | 26 ft | 15 kts | 309° |
| 2026-05-06 05:24 | 37.61093 | -122.38892 | 28 ft | 11 kts | 4° |
| 2026-05-06 05:24 | 37.61151 | -122.38851 | 28 ft | 13 kts | 37° |
| 2026-05-06 05:24 | 37.61202 | -122.38843 | 27 ft | 2 kts | 302° |
| 2026-05-06 05:25 | 37.61217 | -122.38878 | 28 ft | 0 kts | 297° |